createdAt,value
2019-03-27T00:00:43.443Z,4.08
2019-03-27T00:03:09.839Z,4.00
2019-03-27T00:05:36.188Z,4.53
2019-03-27T00:08:03.376Z,4.58
2019-03-27T00:10:29.818Z,4.17
2019-03-27T00:12:58.137Z,4.17
2019-03-27T00:15:24.389Z,4.83
2019-03-27T00:17:50.663Z,4.60
2019-03-27T00:20:17.116Z,5.35
2019-03-27T00:22:43.733Z,5.33
2019-03-27T00:25:10.376Z,5.28
2019-03-27T00:27:36.769Z,5.37
2019-03-27T00:30:09.606Z,6.08
2019-03-27T00:32:35.944Z,4.87
2019-03-27T00:35:06.048Z,4.62
2019-03-27T00:37:32.199Z,5.30
2019-03-27T00:39:58.526Z,4.62
2019-03-27T00:42:24.819Z,4.47
2019-03-27T00:44:51.079Z,4.90
2019-03-27T00:47:17.318Z,4.62
2019-03-27T00:49:43.601Z,5.72
2019-03-27T00:52:10.027Z,4.17
2019-03-27T00:54:36.425Z,5.75
2019-03-27T00:57:05.135Z,5.12
2019-03-27T00:59:30.973Z,5.45
2019-03-27T01:01:57.382Z,5.90
2019-03-27T01:04:23.732Z,5.40
2019-03-27T01:06:51.075Z,4.85
2019-03-27T01:09:17.469Z,6.20
2019-03-27T01:11:43.716Z,5.70
2019-03-27T01:14:10.416Z,6.10
2019-03-27T01:16:36.889Z,6.58
2019-03-27T01:19:03.215Z,6.17
2019-03-27T01:21:29.578Z,6.33
2019-03-27T01:23:55.806Z,6.45
2019-03-27T01:26:22.109Z,7.28
2019-03-27T01:28:48.728Z,6.37
2019-03-27T01:31:15.818Z,6.25
2019-03-27T01:33:42.187Z,6.45
2019-03-27T01:36:08.670Z,6.92
2019-03-27T01:38:34.913Z,7.37
2019-03-27T01:41:01.593Z,6.85
2019-03-27T01:43:27.866Z,6.70
2019-03-27T01:45:56.465Z,7.15
2019-03-27T01:48:22.671Z,7.62
2019-03-27T01:50:48.953Z,7.80
2019-03-27T01:53:15.539Z,7.67
2019-03-27T01:55:43.737Z,7.08
2019-03-27T01:58:10.022Z,7.08
2019-03-27T02:00:36.454Z,7.67
2019-03-27T02:03:03.041Z,7.87
2019-03-27T02:05:29.304Z,8.03
2019-03-27T02:07:55.555Z,7.80
2019-03-27T02:10:21.899Z,7.97
2019-03-27T02:12:48.300Z,6.67
2019-03-27T02:15:15.057Z,7.17
2019-03-27T02:17:41.505Z,8.05
2019-03-27T02:20:08.077Z,8.00
2019-03-27T02:22:34.450Z,8.03
2019-03-27T02:25:00.714Z,7.83
2019-03-27T02:27:27.055Z,7.90
2019-03-27T02:29:53.408Z,8.30
2019-03-27T02:32:20.870Z,7.60
2019-03-27T02:34:47.574Z,8.20
2019-03-27T02:37:14.434Z,9.43
2019-03-27T02:39:40.682Z,8.98
2019-03-27T02:42:06.986Z,8.38
2019-03-27T02:44:33.273Z,8.70
2019-03-27T02:46:59.534Z,8.30
2019-03-27T02:49:25.846Z,8.08
2019-03-27T02:51:52.097Z,9.00
2019-03-27T02:54:18.447Z,9.45
2019-03-27T02:56:44.949Z,9.75
2019-03-27T02:59:11.316Z,9.65
2019-03-27T03:01:37.581Z,9.43
2019-03-27T03:04:04.033Z,8.70
2019-03-27T03:06:30.321Z,8.45
2019-03-27T03:08:56.747Z,9.70
2019-03-27T03:11:23.127Z,8.48
2019-03-27T03:13:49.609Z,9.55
2019-03-27T03:16:15.895Z,9.43
2019-03-27T03:18:43.638Z,8.13
2019-03-27T03:21:09.962Z,9.00
2019-03-27T03:23:36.267Z,8.55
2019-03-27T03:26:04.047Z,9.30
2019-03-27T03:28:30.306Z,9.48
2019-03-27T03:30:56.598Z,8.80
2019-03-27T03:33:23.113Z,9.10
2019-03-27T03:35:49.657Z,9.53
2019-03-27T03:38:16.087Z,10.23
2019-03-27T03:40:42.450Z,9.48
2019-03-27T03:43:08.819Z,10.53
2019-03-27T03:45:35.171Z,10.50
2019-03-27T03:48:01.437Z,9.53
2019-03-27T03:50:34.035Z,10.48
2019-03-27T03:53:00.479Z,10.23
2019-03-27T03:55:27.831Z,9.60
2019-03-27T03:57:54.655Z,9.33
2019-03-27T04:00:21.351Z,9.90
2019-03-27T04:02:50.710Z,9.63
2019-03-27T04:05:20.380Z,10.30
2019-03-27T04:07:46.660Z,10.78
2019-03-27T04:10:13.017Z,9.93
2019-03-27T04:12:39.410Z,10.35
2019-03-27T04:15:07.141Z,9.38
2019-03-27T04:17:33.589Z,9.83
2019-03-27T04:19:59.938Z,8.65
2019-03-27T04:22:26.213Z,10.78
2019-03-27T04:24:52.513Z,10.53
2019-03-27T04:27:18.904Z,11.15
2019-03-27T04:29:45.154Z,11.65
2019-03-27T04:32:11.436Z,10.88
2019-03-27T04:34:37.819Z,9.93
2019-03-27T04:37:04.083Z,12.58
2019-03-27T04:39:30.464Z,12.95
2019-03-27T04:41:56.879Z,11.93
2019-03-27T04:44:23.168Z,13.22
2019-03-27T04:46:49.381Z,12.98
2019-03-27T04:49:15.889Z,13.13
2019-03-27T04:51:42.184Z,14.93
2019-03-27T04:54:08.475Z,13.58
2019-03-27T04:56:36.845Z,14.95
2019-03-27T04:59:03.305Z,14.90
2019-03-27T05:01:29.599Z,15.65
2019-03-27T05:03:56.363Z,15.83
2019-03-27T05:06:22.736Z,16.45
2019-03-27T05:08:49.023Z,16.40
2019-03-27T05:11:15.394Z,15.28
2019-03-27T05:13:41.823Z,15.40
2019-03-27T05:16:09.826Z,16.02
2019-03-27T05:18:37.991Z,15.30
2019-03-27T05:21:04.350Z,13.95
2019-03-27T05:23:30.596Z,13.08
2019-03-27T05:25:56.963Z,14.55
2019-03-27T05:28:23.563Z,14.15
2019-03-27T05:30:49.807Z,14.55
2019-03-27T05:33:16.193Z,14.85
2019-03-27T05:35:42.563Z,13.32
2019-03-27T05:38:08.933Z,15.00
2019-03-27T05:40:35.230Z,12.63
2019-03-27T05:43:01.529Z,13.43
2019-03-27T05:45:27.760Z,15.45
2019-03-27T05:47:59.306Z,15.58
2019-03-27T05:50:22.244Z,14.73
2019-03-27T05:52:48.677Z,14.60
2019-03-27T05:55:15.156Z,13.45
2019-03-27T05:57:41.639Z,14.30
2019-03-27T06:00:08.219Z,13.40
2019-03-27T06:02:34.660Z,13.75
2019-03-27T06:05:00.974Z,14.10
2019-03-27T06:07:27.333Z,14.40
2019-03-27T06:09:53.640Z,14.28
2019-03-27T06:12:19.917Z,14.95
2019-03-27T06:14:46.305Z,13.58
2019-03-27T06:17:12.847Z,14.83
2019-03-27T06:19:39.120Z,15.50
2019-03-27T06:22:05.489Z,14.40
2019-03-27T06:24:31.799Z,14.75
2019-03-27T06:26:58.048Z,14.73
2019-03-27T06:29:24.445Z,15.23
2019-03-27T06:31:51.119Z,14.33
2019-03-27T06:34:17.428Z,14.07
2019-03-27T06:36:44.301Z,14.85
2019-03-27T06:39:10.673Z,14.20
2019-03-27T06:41:37.090Z,14.53
2019-03-27T06:44:03.589Z,14.20
2019-03-27T06:46:30.007Z,14.87
2019-03-27T06:48:56.211Z,14.85
2019-03-27T06:51:24.979Z,16.20
2019-03-27T06:53:50.581Z,16.25
2019-03-27T06:56:16.999Z,17.10
2019-03-27T06:58:53.892Z,17.77
2019-03-27T07:01:11.516Z,18.25
2019-03-27T07:03:37.990Z,18.05
2019-03-27T07:06:04.305Z,18.40
2019-03-27T07:08:30.565Z,19.07
2019-03-27T07:10:56.867Z,18.77
2019-03-27T07:13:26.854Z,17.45
2019-03-27T07:15:53.151Z,16.73
2019-03-27T07:18:19.399Z,12.88
2019-03-27T07:20:45.768Z,17.48
2019-03-27T07:23:12.008Z,16.37
2019-03-27T07:25:38.442Z,12.43
2019-03-27T07:28:04.785Z,13.03
2019-03-27T07:30:31.770Z,15.50
2019-03-27T07:32:57.988Z,14.45
2019-03-27T07:35:24.258Z,14.60
2019-03-27T07:37:50.549Z,13.55
2019-03-27T07:40:16.954Z,13.20
2019-03-27T07:42:43.300Z,10.82
2019-03-27T07:45:09.824Z,12.00
2019-03-27T07:47:36.304Z,9.80
2019-03-27T07:50:05.310Z,10.38
2019-03-27T07:52:34.282Z,10.40
2019-03-27T07:55:00.918Z,10.48
2019-03-27T07:57:27.181Z,8.53
2019-03-27T07:59:53.468Z,9.35
2019-03-27T08:02:19.972Z,8.43
2019-03-27T08:04:46.236Z,8.05
2019-03-27T08:07:25.905Z,7.87
2019-03-27T08:09:40.766Z,8.68
2019-03-27T08:12:07.344Z,8.15
2019-03-27T08:14:33.852Z,8.05
2019-03-27T08:17:00.340Z,8.25
2019-03-27T08:19:26.791Z,7.35
2019-03-27T08:21:53.138Z,7.50
2019-03-27T08:24:19.572Z,7.33
2019-03-27T08:26:45.889Z,6.75
2019-03-27T08:29:12.364Z,6.75
2019-03-27T08:31:38.864Z,6.42
2019-03-27T08:34:05.377Z,5.80
2019-03-27T08:36:31.750Z,6.37
2019-03-27T08:38:58.058Z,6.70
2019-03-27T08:41:24.266Z,6.42
2019-03-27T08:43:50.536Z,7.05
2019-03-27T08:46:16.806Z,6.37
2019-03-27T08:48:43.208Z,7.22
2019-03-27T08:51:09.568Z,5.67
2019-03-27T08:53:37.948Z,6.20
2019-03-27T08:56:07.484Z,5.80
2019-03-27T08:58:33.784Z,6.10
2019-03-27T09:01:00.206Z,5.90
2019-03-27T09:03:26.754Z,5.53
2019-03-27T09:05:53.183Z,5.55
2019-03-27T09:08:19.518Z,4.97
2019-03-27T09:10:45.986Z,5.50
2019-03-27T09:13:12.495Z,5.40
2019-03-27T09:15:38.768Z,5.28
2019-03-27T09:18:05.288Z,4.80
2019-03-27T09:20:31.719Z,5.05
2019-03-27T09:22:58.053Z,4.75
2019-03-27T09:25:24.322Z,5.28
2019-03-27T09:27:50.815Z,4.65
2019-03-27T09:30:20.593Z,4.33
2019-03-27T09:32:46.919Z,4.60
2019-03-27T09:35:13.383Z,4.10
2019-03-27T09:37:39.860Z,4.40
2019-03-27T09:40:06.424Z,4.20
2019-03-27T09:42:32.742Z,4.15
2019-03-27T09:44:59.090Z,3.20
2019-03-27T09:47:25.458Z,3.45
2019-03-27T09:49:55.058Z,3.25
2019-03-27T09:52:21.605Z,3.42
2019-03-27T09:54:47.863Z,3.05
2019-03-27T09:57:14.473Z,3.35
2019-03-27T09:59:41.161Z,3.30
2019-03-27T10:02:07.551Z,3.58
2019-03-27T10:04:40.200Z,3.45
2019-03-27T10:07:06.588Z,3.05
2019-03-27T10:09:32.887Z,3.30
2019-03-27T10:11:59.385Z,3.50
2019-03-27T10:14:25.816Z,3.67
2019-03-27T10:16:52.183Z,3.25
2019-03-27T10:19:18.653Z,2.98
2019-03-27T10:21:45.051Z,3.75
2019-03-27T10:24:11.390Z,6.08
2019-03-27T10:26:37.849Z,5.90
2019-03-27T10:29:04.199Z,4.10
2019-03-27T10:31:30.659Z,3.50
2019-03-27T10:33:58.916Z,3.50
2019-03-27T10:36:25.331Z,3.25
2019-03-27T10:38:51.848Z,3.37
2019-03-27T10:41:18.643Z,3.85
2019-03-27T10:43:45.170Z,3.15
2019-03-27T10:46:11.469Z,3.20
2019-03-27T10:48:51.436Z,3.15
2019-03-27T10:51:06.556Z,3.00
2019-03-27T10:53:33.109Z,3.33
2019-03-27T10:55:59.453Z,3.70
2019-03-27T10:58:25.861Z,3.15
2019-03-27T11:00:52.399Z,3.05
2019-03-27T11:03:18.753Z,3.30
2019-03-27T11:05:45.382Z,3.37
2019-03-27T11:08:11.916Z,3.12
2019-03-27T11:10:38.212Z,2.90
2019-03-27T11:13:04.923Z,3.42
2019-03-27T11:15:31.300Z,3.65
2019-03-27T11:17:57.836Z,3.65
2019-03-27T11:20:30.791Z,3.90
2019-03-27T11:22:52.963Z,3.33
2019-03-27T11:25:19.212Z,4.00
2019-03-27T11:27:45.691Z,3.95
2019-03-27T11:30:13.365Z,4.03
2019-03-27T11:32:39.639Z,3.75
2019-03-27T11:37:48.353Z,5.42
2019-03-27T11:40:14.731Z,5.03
2019-03-27T11:42:40.988Z,5.37
2019-03-27T11:45:08.144Z,5.47
2019-03-27T11:47:34.694Z,6.05
2019-03-27T11:50:00.917Z,5.25
2019-03-27T11:52:29.675Z,5.03
2019-03-27T11:54:55.650Z,5.60
2019-03-27T11:57:21.993Z,5.78
2019-03-27T11:59:53.958Z,5.80
2019-03-27T12:02:16.530Z,5.90
2019-03-27T12:04:42.865Z,5.28
2019-03-27T12:07:09.268Z,6.03
2019-03-27T12:09:35.706Z,6.30
2019-03-27T12:12:02.180Z,6.03
2019-03-27T12:14:28.629Z,6.67
2019-03-27T12:16:55.404Z,5.30
2019-03-27T12:19:21.873Z,5.95
2019-03-27T12:21:48.373Z,5.33
2019-03-27T12:24:14.878Z,7.12
2019-03-27T12:26:41.872Z,7.47
2019-03-27T12:29:08.365Z,7.08
2019-03-27T12:31:34.782Z,6.72
2019-03-27T12:34:03.199Z,6.75
2019-03-27T12:36:29.694Z,7.08
2019-03-27T12:38:57.854Z,6.83
2019-03-27T12:41:24.244Z,6.47
2019-03-27T12:43:50.562Z,5.87
2019-03-27T12:46:18.044Z,5.78
2019-03-27T12:48:47.040Z,5.80
2019-03-27T12:51:13.599Z,5.33
2019-03-27T12:53:41.899Z,5.62
2019-03-27T12:56:08.259Z,4.62
2019-03-27T12:58:37.432Z,4.72
2019-03-27T13:01:03.858Z,6.22
2019-03-27T13:03:30.117Z,6.08
2019-03-27T13:05:56.443Z,6.30
2019-03-27T13:08:23.118Z,7.05
2019-03-27T13:10:49.611Z,8.60
2019-03-27T13:13:16.122Z,11.38
2019-03-27T13:15:42.393Z,13.60
2019-03-27T13:18:08.917Z,15.15
2019-03-27T13:20:36.536Z,13.03
2019-03-27T13:23:02.893Z,14.10
2019-03-27T13:25:29.170Z,12.80
2019-03-27T13:27:55.714Z,11.18
2019-03-27T13:30:22.183Z,10.65
2019-03-27T13:32:48.493Z,8.25
2019-03-27T13:35:15.750Z,8.95
2019-03-27T13:37:42.068Z,6.75
2019-03-27T13:40:09.737Z,7.10
2019-03-27T13:42:37.899Z,7.10
2019-03-27T13:45:05.382Z,7.10
2019-03-27T13:47:31.812Z,5.80
2019-03-27T13:49:58.007Z,7.03
2019-03-27T13:52:24.398Z,6.03
2019-03-27T13:54:50.708Z,5.00
2019-03-27T13:57:17.002Z,5.75
2019-03-27T13:59:45.126Z,6.15
2019-03-27T14:02:11.383Z,5.08
2019-03-27T14:04:37.661Z,5.08
2019-03-27T14:07:04.236Z,5.17
2019-03-27T14:09:30.671Z,4.35
2019-03-27T14:11:59.973Z,4.15
2019-03-27T14:14:26.454Z,4.35
2019-03-27T14:16:52.840Z,3.37
2019-03-27T14:19:19.392Z,3.70
2019-03-27T14:21:54.386Z,3.08
2019-03-27T14:24:13.823Z,2.72
2019-03-27T14:26:45.234Z,3.00
2019-03-27T14:29:08.276Z,3.02
2019-03-27T14:31:34.628Z,2.80
2019-03-27T14:34:00.974Z,2.55
2019-03-27T14:36:27.446Z,2.90
2019-03-27T14:38:53.820Z,3.05
2019-03-27T14:41:20.042Z,2.85
2019-03-27T14:43:46.610Z,3.25
2019-03-27T14:46:12.832Z,3.20
2019-03-27T14:48:41.477Z,3.20
2019-03-27T14:51:07.816Z,3.83
2019-03-27T14:53:34.364Z,3.80
2019-03-27T14:56:00.666Z,3.40
2019-03-27T14:58:27.087Z,3.35
2019-03-27T15:00:55.918Z,3.20
2019-03-27T15:03:22.342Z,3.90
2019-03-27T15:05:48.748Z,3.30
2019-03-27T15:08:15.258Z,3.47
2019-03-27T15:10:41.746Z,4.15
2019-03-27T15:13:10.604Z,3.33
2019-03-27T15:15:37.071Z,3.75
2019-03-27T15:18:04.117Z,3.55
2019-03-27T15:20:30.484Z,3.60
2019-03-27T15:22:57.279Z,4.20
2019-03-27T15:25:23.633Z,4.50
2019-03-27T15:27:49.963Z,4.80
2019-03-27T15:30:16.835Z,3.90
2019-03-27T15:32:43.182Z,4.67
2019-03-27T15:35:11.603Z,4.08
2019-03-27T15:37:38.253Z,3.75
2019-03-27T15:40:05.160Z,5.00
2019-03-27T15:42:31.773Z,4.92
2019-03-27T15:44:58.099Z,5.15
2019-03-27T15:47:24.334Z,6.08
2019-03-27T15:49:50.694Z,5.75
2019-03-27T15:52:17.046Z,6.15
2019-03-27T15:54:43.917Z,6.05
2019-03-27T15:57:10.195Z,6.28
2019-03-27T15:59:36.654Z,6.65
2019-03-27T16:02:03.674Z,7.58
2019-03-27T16:04:29.962Z,7.78
2019-03-27T16:06:56.381Z,6.47
2019-03-27T16:09:22.875Z,6.67
2019-03-27T16:11:49.607Z,5.78
2019-03-27T16:14:15.947Z,7.22
2019-03-27T16:16:57.676Z,7.17
2019-03-27T16:19:10.372Z,8.25
2019-03-27T16:21:37.755Z,7.28
2019-03-27T16:24:06.671Z,7.10
2019-03-27T16:26:32.872Z,8.95
2019-03-27T16:28:59.102Z,9.23
2019-03-27T16:31:25.457Z,8.63
2019-03-27T16:33:51.920Z,9.23
2019-03-27T16:36:18.137Z,11.30
2019-03-27T16:38:46.356Z,9.50
2019-03-27T16:41:12.822Z,9.48
2019-03-27T16:43:39.256Z,9.23
2019-03-27T16:46:06.362Z,9.58
2019-03-27T16:48:33.611Z,11.43
2019-03-27T16:51:00.085Z,11.97
2019-03-27T16:53:26.350Z,18.57
2019-03-27T16:55:52.624Z,23.73
2019-03-27T16:58:18.938Z,13.50
2019-03-27T17:00:45.303Z,19.70
2019-03-27T17:03:11.651Z,20.90
2019-03-27T17:05:38.153Z,12.73
2019-03-27T17:08:04.617Z,12.73
2019-03-27T17:10:30.975Z,15.72
2019-03-27T17:12:57.248Z,11.75
2019-03-27T17:15:23.659Z,14.35
2019-03-27T17:17:50.039Z,15.50
2019-03-27T17:20:16.789Z,13.05
2019-03-27T17:22:48.568Z,10.63
2019-03-27T17:25:15.028Z,12.30
2019-03-27T17:27:41.547Z,12.20
2019-03-27T17:30:09.506Z,12.70
2019-03-27T17:32:37.866Z,13.10
2019-03-27T17:35:05.388Z,13.62
2019-03-27T17:37:31.751Z,10.32
2019-03-27T17:40:01.005Z,11.38
2019-03-27T17:42:27.539Z,9.35
2019-03-27T17:44:53.987Z,8.98
2019-03-27T17:47:20.231Z,9.60
2019-03-27T17:49:46.579Z,7.12
2019-03-27T17:52:12.958Z,8.08
2019-03-27T17:54:39.289Z,8.30
2019-03-27T17:57:05.529Z,9.03
2019-03-27T17:59:31.938Z,11.83
2019-03-27T18:01:58.327Z,8.35
2019-03-27T18:04:24.617Z,7.37
2019-03-27T18:06:50.997Z,8.63
2019-03-27T18:09:20.676Z,8.05
2019-03-27T18:11:46.970Z,9.35
2019-03-27T18:14:13.243Z,8.43
2019-03-27T18:16:50.379Z,7.53
2019-03-27T18:19:16.643Z,9.65
2019-03-27T18:21:42.882Z,10.10
2019-03-27T18:24:10.147Z,11.38
2019-03-27T18:26:36.631Z,9.30
2019-03-27T18:29:03.170Z,8.35
2019-03-27T18:31:29.465Z,8.33
2019-03-27T18:33:55.848Z,8.63
2019-03-27T18:36:22.187Z,7.17
2019-03-27T18:38:48.754Z,9.03
2019-03-27T18:41:15.051Z,9.13
2019-03-27T18:43:41.391Z,10.55
2019-03-27T18:46:07.780Z,10.38
2019-03-27T18:48:34.065Z,11.55
2019-03-27T18:51:00.717Z,13.90
2019-03-27T18:53:27.094Z,12.93
2019-03-27T18:55:53.605Z,15.10
2019-03-27T18:58:19.832Z,19.17
2019-03-27T19:00:46.314Z,31.40
2019-03-27T19:03:12.582Z,14.45
2019-03-27T19:05:39.045Z,13.43
2019-03-27T19:08:05.331Z,13.15
2019-03-27T19:10:32.002Z,11.78
2019-03-27T19:12:58.442Z,10.35
2019-03-27T19:15:26.276Z,13.15
2019-03-27T19:17:52.537Z,12.33
2019-03-27T19:20:18.953Z,10.70
2019-03-27T19:22:45.377Z,12.70
2019-03-27T19:25:11.984Z,11.45
2019-03-27T19:27:38.859Z,12.47
2019-03-27T19:30:07.794Z,11.53
2019-03-27T19:32:36.465Z,11.57
2019-03-27T19:35:03.931Z,12.55
2019-03-27T19:37:30.337Z,12.60
2019-03-27T19:39:56.637Z,10.98
2019-03-27T19:42:23.081Z,11.90
2019-03-27T19:44:49.593Z,13.18
2019-03-27T19:47:15.858Z,12.95
2019-03-27T19:49:42.168Z,11.48
2019-03-27T19:52:08.485Z,11.12
2019-03-27T19:54:35.023Z,11.00
2019-03-27T19:57:01.480Z,13.60
2019-03-27T19:59:28.053Z,10.75
2019-03-27T20:01:54.446Z,12.60
2019-03-27T20:04:20.880Z,11.03
2019-03-27T20:06:47.307Z,10.63
2019-03-27T20:09:13.700Z,10.85
2019-03-27T20:11:42.744Z,12.58
2019-03-27T20:14:11.640Z,11.45
2019-03-27T20:16:37.903Z,11.90
2019-03-27T20:19:04.279Z,12.28
2019-03-27T20:21:30.885Z,12.95
2019-03-27T20:23:57.312Z,13.43
2019-03-27T20:26:24.265Z,13.20
2019-03-27T20:28:50.532Z,13.13
2019-03-27T20:31:17.053Z,14.33
2019-03-27T20:33:46.382Z,14.23
2019-03-27T20:36:13.207Z,14.78
2019-03-27T20:38:39.813Z,14.13
2019-03-27T20:41:06.374Z,13.85
2019-03-27T20:43:33.724Z,15.10
2019-03-27T20:46:00.029Z,14.90
2019-03-27T20:48:26.420Z,17.45
2019-03-27T20:50:53.052Z,14.70
2019-03-27T20:53:19.534Z,14.90
2019-03-27T20:55:45.930Z,16.37
2019-03-27T20:58:12.660Z,18.00
2019-03-27T21:00:39.466Z,16.12
2019-03-27T21:03:05.836Z,15.25
2019-03-27T21:05:34.969Z,17.77
2019-03-27T21:08:00.668Z,18.07
2019-03-27T21:10:27.214Z,18.32
2019-03-27T21:12:53.620Z,16.90
2019-03-27T21:15:20.824Z,15.43
2019-03-27T21:17:47.276Z,17.15
2019-03-27T21:20:13.751Z,18.05
2019-03-27T21:22:40.365Z,18.37
2019-03-27T21:25:09.347Z,18.02
2019-03-27T21:27:36.114Z,16.70
2019-03-27T21:30:05.509Z,18.17
2019-03-27T21:32:31.868Z,17.70
2019-03-27T21:34:58.351Z,16.05
2019-03-27T21:37:24.822Z,17.10
2019-03-27T21:39:51.441Z,15.75
2019-03-27T21:42:17.850Z,16.17
2019-03-27T21:44:45.083Z,15.25
2019-03-27T21:47:13.315Z,16.05
2019-03-27T21:49:39.699Z,16.85
2019-03-27T21:52:06.179Z,16.50
2019-03-27T21:54:32.602Z,17.48
2019-03-27T21:56:58.913Z,15.83
2019-03-27T21:59:27.633Z,17.90
2019-03-27T22:01:54.034Z,16.77
2019-03-27T22:04:20.450Z,17.07
2019-03-27T22:06:46.936Z,17.15
2019-03-27T22:09:13.283Z,17.90
2019-03-27T22:11:39.545Z,16.07
2019-03-27T22:14:06.270Z,15.55
2019-03-27T22:16:32.661Z,15.98
2019-03-27T22:19:01.818Z,17.05
2019-03-27T22:21:28.202Z,15.13
2019-03-27T22:23:54.899Z,16.55
2019-03-27T22:26:21.295Z,15.28
2019-03-27T22:28:47.595Z,15.45
2019-03-27T22:31:13.969Z,15.10
2019-03-27T22:33:40.544Z,15.10
2019-03-27T22:36:06.904Z,15.72
2019-03-27T22:38:33.515Z,15.53
2019-03-27T22:40:59.946Z,15.68
2019-03-27T22:43:26.345Z,15.78
2019-03-27T22:45:53.084Z,16.37
2019-03-27T22:48:19.453Z,15.88
2019-03-27T22:50:45.982Z,16.10
2019-03-27T22:53:12.519Z,15.50
2019-03-27T22:55:48.972Z,14.87
2019-03-27T22:58:07.233Z,15.30
2019-03-27T23:00:35.739Z,14.80
2019-03-27T23:03:02.447Z,14.35
2019-03-27T23:05:30.155Z,14.95
2019-03-27T23:07:56.983Z,14.95
2019-03-27T23:10:23.373Z,15.25
2019-03-27T23:12:49.650Z,14.75
2019-03-27T23:15:16.092Z,14.95
2019-03-27T23:17:42.521Z,16.32
2019-03-27T23:20:09.480Z,15.30
2019-03-27T23:22:36.260Z,13.28
2019-03-27T23:25:03.652Z,13.75
2019-03-27T23:27:29.959Z,15.72
2019-03-27T23:29:56.349Z,15.95
2019-03-27T23:32:22.832Z,14.18
2019-03-27T23:34:49.155Z,15.53
2019-03-27T23:37:15.583Z,14.68
2019-03-27T23:39:41.930Z,16.20
2019-03-27T23:42:09.080Z,16.40
2019-03-27T23:44:35.449Z,16.10
2019-03-27T23:47:01.746Z,15.20
2019-03-27T23:49:28.128Z,15.48
2019-03-27T23:51:54.538Z,16.42
2019-03-27T23:54:21.069Z,13.55
2019-03-27T23:56:48.104Z,13.05
2019-03-27T23:59:14.428Z,14.90
